Weather reports worldwide

Advertisment
Chamonix, France (7469): temperature & dewpoint: 17.05.2018 03:00:00 - 23.05.2018 03:00:00 (CEST)Chamonix, France (7469): wind speed & gusts: 17.05.2018 03:00:00 - 23.05.2018 03:00:00 (CEST)Chamonix, France (7469): wind direction: 17.05.2018 03:00:00 - 23.05.2018 03:00:00 (CEST)Chamonix, France (7469): precipitation: 17.05.2018 03:00:00 - 23.05.2018 03:00:00 (CEST)
Date & Time tt [°C] td [°C] ff [km/h] ff [kn] fx [km/h] fx [kn] dd rr [mm]
23.05.2018 03:00:00 10,4 9,9 2 1 5 3 E 0,0
23.05.2018 02:00:00 10,9 10,6 0 0 0 0 N -
23.05.2018 01:00:00 11,0 10,5 0 0 2 1 N 0,2
23.05.2018 00:00:00 11,0 10,4 0 0 4 2 N 0,0
22.05.2018 23:00:00 11,4 10,5 0 0 9 5 N 0,2
22.05.2018 22:00:00 11,6 10,5 0 0 8 4 N 0,0
22.05.2018 21:00:00 11,4 10,0 0 0 5 3 N 0,0
22.05.2018 20:00:00 12,5 10,6 2 1 11 6 ENE -
22.05.2018 19:00:00 14,6 9,6 4 2 21 11 NE 0,0
22.05.2018 18:00:00 16,6 7,5 8 4 29 16 S 0,0
22.05.2018 17:00:00 20,7 7,3 8 4 24 13 SSW 0,0
22.05.2018 16:00:00 19,9 7,9 8 4 26 14 SSW 0,0
22.05.2018 15:00:00 21,1 7,3 8 4 21 11 SSW 0,0
22.05.2018 14:00:00 20,5 5,3 8 4 18 10 WSW -
22.05.2018 13:00:00 19,2 7,0 2 1 9 5 SW 0,0
22.05.2018 12:00:00 18,3 5,5 2 1 11 6 SSW 0,0
22.05.2018 11:00:00 16,9 6,4 5 3 11 6 SW 0,0
22.05.2018 10:00:00 14,4 6,5 4 2 8 4 SW 0,0
22.05.2018 09:00:00 7,9 7,9 0 0 5 3 N 0,0
22.05.2018 08:00:00 5,3 5,2 0 0 4 2 N -
22.05.2018 07:00:00 4,7 4,6 0 0 4 2 N 0,0
22.05.2018 06:00:00 4,5 4,2 0 0 4 2 N 0,0
22.05.2018 05:00:00 4,9 4,5 0 0 8 4 N 0,0
22.05.2018 04:00:00 5,4 5,0 0 0 5 3 N 0,0
22.05.2018 03:00:00 6,2 5,8 0 0 5 3 N 0,0
22.05.2018 02:00:00 6,5 5,8 0 0 4 2 N -
22.05.2018 01:00:00 7,4 6,2 0 0 4 2 N 0,0
22.05.2018 00:00:00 8,3 7,1 2 1 4 2 E 0,0
21.05.2018 23:00:00 9,4 7,3 2 1 4 2 E 0,0
21.05.2018 22:00:00 11,9 8,2 2 1 5 3 NNE 0,0
21.05.2018 21:00:00 14,2 8,6 0 0 8 4 N 0,0
21.05.2018 20:00:00 16,5 7,2 2 1 13 7 SW -
21.05.2018 19:00:00 18,7 4,8 4 2 11 6 WNW 0,0
21.05.2018 18:00:00 19,7 4,2 0 0 11 6 N 0,0
21.05.2018 17:00:00 19,7 5,3 4 2 16 9 SW 0,0
21.05.2018 16:00:00 21,2 4,3 5 3 15 8 SSW 0,0
21.05.2018 15:00:00 19,0 4,7 5 3 16 9 WSW 0,0
21.05.2018 14:00:00 19,0 4,0 5 3 13 7 WSW -
21.05.2018 13:00:00 18,0 7,1 5 3 16 9 N 0,0
21.05.2018 12:00:00 17,4 9,3 4 2 15 8 NE 0,0
21.05.2018 11:00:00 14,6 7,6 4 2 18 10 ENE 0,0
21.05.2018 10:00:00 13,0 7,0 4 2 11 6 NE 0,0
21.05.2018 09:00:00 9,2 9,1 0 0 8 4 N 0,0
21.05.2018 08:00:00 7,4 7,4 0 0 4 2 N -
21.05.2018 07:00:00 5,9 5,8 0 0 4 2 N 0,0
21.05.2018 06:00:00 5,5 5,4 0 0 8 4 N 0,0
21.05.2018 05:00:00 6,2 6,1 2 1 8 4 SE 0,0
21.05.2018 04:00:00 5,8 5,5 2 1 5 3 NE 0,0
21.05.2018 03:00:00 6,3 6,0 2 1 5 3 NNE 0,0
21.05.2018 02:00:00 6,8 6,5 0 0 4 2 N -
21.05.2018 01:00:00 7,1 6,7 2 1 4 2 N 0,0
21.05.2018 00:00:00 7,9 7,5 2 1 5 3 E 0,0
20.05.2018 23:00:00 8,6 8,0 0 0 5 3 N 0,0
20.05.2018 22:00:00 9,7 8,9 0 0 5 3 N 0,0
20.05.2018 21:00:00 10,7 9,8 0 0 5 3 N 0,2
20.05.2018 20:00:00 11,6 10,5 2 1 9 5 S -
20.05.2018 19:00:00 12,0 10,2 0 0 5 3 N 0,0
20.05.2018 18:00:00 11,9 10,5 0 0 13 7 N 0,8
20.05.2018 17:00:00 15,1 8,8 4 2 18 10 SW 0,0
20.05.2018 16:00:00 17,7 5,6 8 4 24 13 N 0,0
20.05.2018 15:00:00 17,8 7,2 8 4 16 9 NNE 0,0
20.05.2018 14:00:00 16,0 6,4 2 1 18 10 S -
20.05.2018 13:00:00 16,6 6,1 8 4 15 8 SW 0,0
20.05.2018 12:00:00 17,7 5,9 8 4 15 8 SW 0,0
20.05.2018 11:00:00 16,0 4,4 4 2 11 6 S 0,0
20.05.2018 10:00:00 11,8 6,7 2 1 5 3 E 0,0
20.05.2018 09:00:00 7,0 7,0 2 1 4 2 ESE 0,0
20.05.2018 08:00:00 4,1 4,0 0 0 4 2 N -
20.05.2018 07:00:00 3,5 3,4 0 0 4 2 N 0,0
20.05.2018 06:00:00 3,1 2,8 0 0 4 2 N 0,0
20.05.2018 05:00:00 3,4 3,1 0 0 5 3 N 0,0
20.05.2018 04:00:00 3,8 3,5 0 0 4 2 N 0,0
20.05.2018 03:00:00 4,4 4,1 0 0 5 3 N 0,0
20.05.2018 02:00:00 5,1 4,7 0 0 4 2 N -
20.05.2018 01:00:00 5,9 5,5 0 0 4 2 N 0,0
20.05.2018 00:00:00 6,7 6,3 0 0 5 3 N 0,0
19.05.2018 23:00:00 7,2 6,3 0 0 5 3 N 0,0
19.05.2018 22:00:00 8,5 7,1 0 0 5 3 N 0,0
19.05.2018 21:00:00 10,7 7,8 0 0 5 3 N 0,0
19.05.2018 20:00:00 14,4 8,6 2 1 9 5 NE -
19.05.2018 19:00:00 15,1 7,6 4 2 24 13 SW 0,0
19.05.2018 18:00:00 16,4 7,3 5 3 29 16 SSW 0,0
19.05.2018 17:00:00 17,7 5,6 4 2 21 11 N 0,2
19.05.2018 16:00:00 14,9 7,9 8 4 16 9 NNW 0,0
19.05.2018 15:00:00 15,2 11,4 5 3 21 11 NNE 0,6
19.05.2018 14:00:00 18,2 9,5 4 2 21 11 NE -
19.05.2018 13:00:00 17,3 7,1 5 3 18 10 WSW 0,0
19.05.2018 12:00:00 17,7 6,5 8 4 21 11 WSW 0,0
19.05.2018 11:00:00 16,5 7,4 5 3 16 9 SW 0,0
19.05.2018 10:00:00 12,8 7,0 0 0 4 2 N 0,0
19.05.2018 09:00:00 9,9 8,5 2 1 5 3 ESE 0,0
19.05.2018 08:00:00 7,7 7,4 0 0 2 1 N -
19.05.2018 07:00:00 7,1 7,0 0 0 4 2 N 0,0
19.05.2018 06:00:00 6,2 5,8 0 0 4 2 N 0,0
19.05.2018 05:00:00 6,9 6,5 0 0 2 1 N 0,0
19.05.2018 04:00:00 7,1 6,5 0 0 2 1 N 0,0
19.05.2018 03:00:00 7,6 6,8 0 0 4 2 N 0,0
19.05.2018 02:00:00 8,2 7,3 0 0 4 2 N -
19.05.2018 01:00:00 8,8 7,4 0 0 4 2 N 0,0
19.05.2018 00:00:00 10,1 8,2 0 0 4 2 N 0,0
18.05.2018 23:00:00 10,6 8,4 0 0 4 2 N 0,0
18.05.2018 22:00:00 11,3 8,2 0 0 8 4 N 0,0
18.05.2018 21:00:00 12,5 8,0 2 1 11 6 SSE 0,0
18.05.2018 20:00:00 14,1 7,4 0 0 8 4 N -
18.05.2018 19:00:00 15,3 6,8 4 2 21 11 W 0,0
18.05.2018 18:00:00 16,0 7,2 5 3 22 12 SSW 0,0
18.05.2018 17:00:00 17,3 7,3 5 3 18 10 WSW 0,0
18.05.2018 16:00:00 19,7 6,4 8 4 18 10 SW 0,0
18.05.2018 15:00:00 20,6 6,5 8 4 22 12 WSW 0,0
18.05.2018 14:00:00 20,1 6,4 8 4 26 14 SSW -
18.05.2018 13:00:00 19,6 6,3 8 4 22 12 SSW 0,0
18.05.2018 12:00:00 17,9 6,7 8 4 21 11 SW 0,0
18.05.2018 11:00:00 16,6 7,5 4 2 11 6 S 0,0
18.05.2018 10:00:00 11,4 7,3 0 0 5 3 N 0,0
18.05.2018 09:00:00 6,9 6,9 0 0 5 3 N 0,0
18.05.2018 08:00:00 3,8 3,7 0 0 4 2 N -
18.05.2018 07:00:00 3,1 3,0 0 0 4 2 N 0,0
18.05.2018 06:00:00 3,1 2,8 0 0 5 3 N 0,0
18.05.2018 05:00:00 3,6 3,3 0 0 4 2 N 0,0
18.05.2018 04:00:00 4,2 3,8 0 0 4 2 N 0,0
18.05.2018 03:00:00 4,8 4,2 2 1 4 2 N 0,0
18.05.2018 02:00:00 5,7 5,1 0 0 4 2 N -
18.05.2018 01:00:00 6,7 5,6 0 0 4 2 N 0,0
18.05.2018 00:00:00 7,4 6,5 0 0 5 3 N 0,0
17.05.2018 23:00:00 7,9 6,5 0 0 5 3 N 0,0
17.05.2018 22:00:00 9,8 7,6 0 0 4 2 N 0,0
17.05.2018 21:00:00 12,6 8,1 4 2 8 4 S 0,0
17.05.2018 20:00:00 14,8 6,9 4 2 13 7 NNE -
17.05.2018 19:00:00 16,7 5,6 5 3 21 11 SW 0,0
17.05.2018 18:00:00 18,4 5,2 8 4 24 13 SW 0,0
17.05.2018 17:00:00 18,1 6,6 5 3 22 12 S 0,0
17.05.2018 16:00:00 19,8 4,3 8 4 24 13 NNE 0,0
17.05.2018 15:00:00 19,0 2,8 9 5 22 12 NE 0,0
17.05.2018 14:00:00 18,1 5,6 2 1 16 9 SSW -
17.05.2018 13:00:00 17,1 5,4 8 4 16 9 SW 0,0
17.05.2018 12:00:00 15,8 6,0 8 4 18 10 SSW 0,0
17.05.2018 11:00:00 14,8 5,8 4 2 9 5 S 0,0
17.05.2018 10:00:00 - - - - - - - -
17.05.2018 09:00:00 7,3 7,0 2 1 5 3 ESE 0,0
17.05.2018 08:00:00 - - - - - - - -
17.05.2018 07:00:00 6,1 6,0 0 0 4 2 N 0,0
17.05.2018 06:00:00 5,6 5,5 0 0 4 2 N 0,0
17.05.2018 05:00:00 6,0 5,9 0 0 4 2 N 0,0
17.05.2018 04:00:00 5,7 5,6 0 0 4 2 N 0,0
17.05.2018 03:00:00 5,9 5,6 2 1 4 2 NNE 0,0

tt = temperature
td = dewpoint
ff = wind speed
fx = gusts
dd = wind direction
rr = precipitation

Next stations